Time;durP1;ratioP1;P1;durP2;ratioP2;P2;SDS_P1;SDS_P2;PMS_P1;PMS_P2;Temp;Humidity;BMP_temperature;BMP_pressure;BME280_temperature;BME280_humidity;BME280_pressure;Samples;Min_cycle;Max_cycle;Signal;HPM_P1;HPM_P2
2023/09/28 00:01:47;;;;;;;4.45;2.60;;;20.20;99.90;;;;;;5054793;28;20021;-70
2023/09/28 00:04:13;;;;;;;5.88;2.65;;;20.20;99.90;;;;;;5055499;28;20029;-70
2023/09/28 00:06:39;;;;;;;5.00;2.80;;;20.20;99.90;;;;;;5054656;28;20391;-70
2023/09/28 00:09:05;;;;;;;4.65;2.63;;;20.20;99.90;;;;;;5053976;28;20033;-70
2023/09/28 00:11:31;;;;;;;4.07;2.45;;;20.20;99.90;;;;;;5054431;28;20021;-70
2023/09/28 00:13:57;;;;;;;6.10;2.67;;;20.30;99.90;;;;;;5054094;28;20029;-70
2023/09/28 00:16:22;;;;;;;6.95;2.50;;;20.30;99.90;;;;;;5054695;28;20027;-70
2023/09/28 00:18:48;;;;;;;6.22;2.88;;;20.30;99.90;;;;;;5053848;28;20036;-69
2023/09/28 00:21:14;;;;;;;5.10;2.65;;;20.20;99.90;;;;;;5054490;28;20024;-70
2023/09/28 00:23:39;;;;;;;3.88;2.28;;;20.20;99.90;;;;;;5055022;28;20418;-70
2023/09/28 00:26:07;;;;;;;5.72;2.75;;;20.20;99.90;;;;;;5054395;28;20028;-70
2023/09/28 00:28:33;;;;;;;6.35;3.03;;;20.20;99.90;;;;;;5054923;28;20021;-70
2023/09/28 00:31:01;;;;;;;4.72;2.65;;;20.20;99.90;;;;;;5054496;28;20025;-70
2023/09/28 00:33:27;;;;;;;5.18;2.67;;;20.20;99.90;;;;;;5055043;28;20025;-70
2023/09/28 00:35:52;;;;;;;4.80;2.70;;;20.20;99.90;;;;;;5054466;28;20021;-70
2023/09/28 00:38:18;;;;;;;4.85;3.00;;;20.20;99.90;;;;;;5054760;28;20509;-70
2023/09/28 00:40:44;;;;;;;4.72;2.75;;;20.20;99.90;;;;;;5054160;28;20092;-70
2023/09/28 00:43:10;;;;;;;5.70;2.85;;;20.20;99.90;;;;;;5054334;28;20029;-70
2023/09/28 00:45:37;;;;;;;5.47;3.03;;;20.20;99.90;;;;;;5054193;28;20032;-70
2023/09/28 00:48:09;;;;;;;5.70;2.95;;;20.20;99.90;;;;;;5054199;28;20029;-69
2023/09/28 00:50:34;;;;;;;6.20;2.72;;;20.20;99.90;;;;;;5053935;28;20499;-70
2023/09/28 00:53:04;;;;;;;5.13;2.67;;;20.20;99.90;;;;;;5052869;28;20025;-70
2023/09/28 00:55:30;;;;;;;7.78;2.67;;;20.10;99.90;;;;;;5054145;28;20025;-70
2023/09/28 00:58:01;;;;;;;5.60;2.72;;;20.10;99.90;;;;;;5054188;28;20090;-69
2023/09/28 01:00:33;;;;;;;5.40;3.13;;;20.10;99.90;;;;;;5054039;28;20506;-70
2023/09/28 01:03:02;;;;;;;3.92;2.47;;;20.10;99.90;;;;;;5053930;28;20021;-70
2023/09/28 01:05:31;;;;;;;6.38;3.00;;;20.10;99.90;;;;;;5054114;28;20028;-69
2023/09/28 01:08:07;;;;;;;5.20;3.08;;;20.00;99.90;;;;;;5053776;28;20028;-70
2023/09/28 01:10:35;;;;;;;5.80;2.88;;;20.00;99.90;;;;;;5054035;28;20063;-70
2023/09/28 01:13:15;;;;;;;6.28;3.10;;;20.00;99.90;;;;;;5053685;28;20036;-70
2023/09/28 01:15:42;;;;;;;5.32;2.90;;;19.90;99.90;;;;;;5053743;28;20021;-70
2023/09/28 01:18:15;;;;;;;6.70;3.25;;;19.90;99.90;;;;;;5053737;28;20021;-70
2023/09/28 01:20:43;;;;;;;6.43;2.65;;;19.90;99.90;;;;;;5053560;28;20478;-70
2023/09/28 01:23:09;;;;;;;4.47;2.75;;;19.90;99.90;;;;;;5053696;28;20024;-69
2023/09/28 01:25:36;;;;;;;5.97;3.40;;;19.80;99.90;;;;;;5053830;28;20399;-70
2023/09/28 01:28:03;;;;;;;11.38;3.30;;;19.80;99.90;;;;;;5053588;28;20040;-69
2023/09/28 01:30:29;;;;;;;6.53;3.20;;;19.80;99.90;;;;;;5053741;28;20048;-69
2023/09/28 01:32:55;;;;;;;7.43;3.63;;;19.70;99.90;;;;;;5053100;28;20102;-69
2023/09/28 01:35:21;;;;;;;7.35;3.65;;;19.70;99.90;;;;;;5053266;28;20104;-69
2023/09/28 01:38:13;;;;;;;5.68;3.03;;;19.60;99.90;;;;;;5051681;28;20131;-69
2023/09/28 01:40:39;;;;;;;5.53;3.03;;;19.60;99.90;;;;;;5053472;28;20021;-69
2023/09/28 01:43:05;;;;;;;5.63;3.10;;;19.50;99.90;;;;;;5053028;28;20471;-69
2023/09/28 01:45:31;;;;;;;4.80;3.17;;;19.50;99.90;;;;;;5053441;28;20025;-70
2023/09/28 01:47:56;;;;;;;6.10;2.97;;;19.50;99.90;;;;;;5052566;28;20032;-70
2023/09/28 01:50:22;;;;;;;6.28;3.30;;;19.40;99.90;;;;;;5051924;28;20048;-70
2023/09/28 01:52:48;;;;;;;8.23;3.30;;;19.40;99.90;;;;;;5052593;28;20383;-70
2023/09/28 01:55:14;;;;;;;6.00;3.58;;;19.40;99.90;;;;;;5053175;28;20013;-70
2023/09/28 01:57:40;;;;;;;7.03;3.40;;;19.40;99.90;;;;;;5051339;28;20017;-70
2023/09/28 02:00:15;;;;;;;6.00;3.38;;;19.40;99.90;;;;;;5053319;28;20028;-70
2023/09/28 02:02:42;;;;;;;8.30;3.10;;;19.40;99.90;;;;;;5052649;28;20387;-70
2023/09/28 02:05:08;;;;;;;11.05;3.90;;;19.40;99.90;;;;;;5053131;28;20025;-70
2023/09/28 02:07:36;;;;;;;8.20;3.38;;;19.30;99.90;;;;;;5052358;28;20031;-70
2023/09/28 02:10:03;;;;;;;6.68;3.08;;;19.30;99.90;;;;;;5052998;28;20027;-69
2023/09/28 02:12:29;;;;;;;5.40;3.17;;;19.30;99.90;;;;;;5052207;28;20391;-70
2023/09/28 02:14:55;;;;;;;5.82;3.30;;;19.30;99.90;;;;;;5052844;28;20039;-69
2023/09/28 02:17:21;;;;;;;8.00;3.33;;;19.20;99.90;;;;;;5052394;28;20074;-70
2023/09/28 02:19:49;;;;;;;6.00;3.30;;;19.20;99.90;;;;;;5052895;28;20026;-70
2023/09/28 02:22:15;;;;;;;6.00;3.20;;;19.20;99.90;;;;;;5052187;28;20052;-69
2023/09/28 02:24:41;;;;;;;5.55;3.10;;;19.20;99.90;;;;;;5052689;28;20028;-69
2023/09/28 02:27:07;;;;;;;6.65;3.30;;;19.20;99.90;;;;;;5051986;28;20044;-69
2023/09/28 02:29:33;;;;;;;7.32;3.15;;;19.20;99.90;;;;;;5051299;28;20483;-69
2023/09/28 02:31:59;;;;;;;6.65;3.40;;;19.20;99.90;;;;;;5051799;28;20109;-69
2023/09/28 02:34:24;;;;;;;4.85;3.03;;;19.20;99.90;;;;;;5052685;28;20092;-70
2023/09/28 02:36:50;;;;;;;5.93;2.70;;;19.30;99.90;;;;;;5051839;28;20021;-70
2023/09/28 02:39:16;;;;;;;5.63;3.20;;;19.30;99.90;;;;;;5052415;28;20021;-70
2023/09/28 02:41:42;;;;;;;6.35;3.17;;;19.30;99.90;;;;;;5050486;28;20025;-69
2023/09/28 02:44:07;;;;;;;5.55;3.30;;;19.30;99.90;;;;;;5052251;28;20036;-70
2023/09/28 02:46:33;;;;;;;5.97;2.78;;;19.40;99.90;;;;;;5051882;28;20053;-70
2023/09/28 02:48:59;;;;;;;6.57;3.22;;;19.40;99.90;;;;;;5052336;28;20048;-70
2023/09/28 02:51:25;;;;;;;6.75;3.25;;;19.40;99.90;;;;;;5051706;28;20484;-70
2023/09/28 02:53:50;;;;;;;5.28;2.80;;;19.40;99.90;;;;;;5052187;28;20021;-70
2023/09/28 02:56:17;;;;;;;5.45;3.30;;;19.40;99.90;;;;;;5051781;28;20100;-69
2023/09/28 02:58:44;;;;;;;5.85;3.42;;;19.40;99.90;;;;;;5051785;28;20475;-69
2023/09/28 03:01:09;;;;;;;5.53;3.33;;;19.40;99.90;;;;;;5051877;28;20163;-70
2023/09/28 03:03:35;;;;;;;5.95;3.30;;;19.40;99.90;;;;;;5050511;28;20486;-70
2023/09/28 03:06:01;;;;;;;6.50;2.83;;;19.30;99.90;;;;;;5050936;28;20391;-70
2023/09/28 03:08:27;;;;;;;6.53;3.40;;;19.30;99.90;;;;;;5051738;28;20503;-70
2023/09/28 03:10:53;;;;;;;8.23;3.60;;;19.30;99.90;;;;;;5051648;28;20029;-70
2023/09/28 03:13:19;;;;;;;4.95;3.30;;;19.30;99.90;;;;;;5051372;28;20055;-70
2023/09/28 03:15:45;;;;;;;6.25;3.95;;;19.30;99.90;;;;;;5051882;28;20399;-70
2023/09/28 03:18:14;;;;;;;6.45;3.47;;;19.30;99.90;;;;;;5051179;28;20486;-70
2023/09/28 03:20:44;;;;;;;7.45;3.92;;;19.30;99.90;;;;;;5052042;28;20027;-70
2023/09/28 03:23:13;;;;;;;7.45;3.40;;;19.20;99.90;;;;;;5051285;28;20025;-70
2023/09/28 03:25:39;;;;;;;5.85;3.50;;;19.20;99.90;;;;;;5050616;28;20029;-70
2023/09/28 03:28:05;;;;;;;6.85;3.65;;;19.20;99.90;;;;;;5051142;28;20591;-69
2023/09/28 03:30:31;;;;;;;5.30;3.65;;;19.10;99.90;;;;;;5051976;28;20392;-69
2023/09/28 03:32:57;;;;;;;6.85;3.65;;;19.10;99.90;;;;;;5051270;28;20044;-69
2023/09/28 03:35:23;;;;;;;5.93;3.25;;;19.00;99.90;;;;;;5051655;28;20059;-69
2023/09/28 03:37:53;;;;;;;7.55;3.90;;;19.00;99.90;;;;;;5050902;28;20068;-69
2023/09/28 03:40:20;;;;;;;7.60;4.10;;;18.90;99.90;;;;;;5051746;28;20029;-70
2023/09/28 03:42:49;;;;;;;6.53;3.92;;;18.90;99.90;;;;;;5050880;28;20487;-69
2023/09/28 03:45:20;;;;;;;5.97;3.42;;;18.90;99.90;;;;;;5051871;28;20092;-70
2023/09/28 03:47:48;;;;;;;10.68;3.97;;;18.90;99.90;;;;;;5050818;28;20017;-70
2023/09/28 03:50:13;;;;;;;9.43;3.90;;;18.90;99.90;;;;;;5051312;28;20094;-70
2023/09/28 03:52:40;;;;;;;6.38;3.85;;;18.90;99.90;;;;;;5050933;28;20017;-70
2023/09/28 03:55:24;;;;;;;6.97;3.90;;;18.90;99.90;;;;;;5051419;28;20094;-70
2023/09/28 03:57:51;;;;;;;10.23;4.10;;;18.90;99.90;;;;;;5051121;28;20498;-70
2023/09/28 04:00:18;;;;;;;7.05;3.80;;;18.90;99.90;;;;;;5051543;28;20017;-70
2023/09/28 04:02:47;;;;;;;8.90;3.55;;;18.90;99.90;;;;;;5049561;28;20033;-69
2023/09/28 04:05:13;;;;;;;9.45;3.60;;;18.90;99.90;;;;;;5051340;28;20036;-70
2023/09/28 04:07:40;;;;;;;6.60;3.80;;;18.80;99.90;;;;;;5050734;28;20029;-69
2023/09/28 04:10:06;;;;;;;6.50;4.05;;;18.90;99.90;;;;;;5051414;28;20423;-70
2023/09/28 04:12:32;;;;;;;7.35;3.83;;;18.80;99.90;;;;;;5050717;28;20108;-69
2023/09/28 04:14:58;;;;;;;9.05;4.25;;;18.80;99.90;;;;;;5051460;28;20466;-69
2023/09/28 04:17:24;;;;;;;6.88;4.35;;;18.80;99.90;;;;;;5051817;28;20032;-69
2023/09/28 04:19:50;;;;;;;6.28;3.72;;;18.80;99.90;;;;;;5053734;28;20025;-70
2023/09/28 04:22:16;;;;;;;7.80;3.55;;;18.80;99.90;;;;;;5053038;28;20033;-70
2023/09/28 04:24:42;;;;;;;7.22;4.40;;;18.70;99.90;;;;;;5054885;28;20634;-70
2023/09/28 04:27:08;;;;;;;9.15;4.30;;;18.70;99.90;;;;;;5054522;28;20104;-69
2023/09/28 04:29:34;;;;;;;6.03;4.18;;;18.70;99.90;;;;;;5054960;28;20024;-69
2023/09/28 04:32:01;;;;;;;7.28;3.90;;;18.70;99.90;;;;;;5052811;28;20095;-69
2023/09/28 04:34:27;;;;;;;7.53;4.00;;;18.70;99.90;;;;;;5053461;28;20451;-70
2023/09/28 04:36:53;;;;;;;6.22;3.83;;;18.60;99.90;;;;;;5054108;28;20071;-70
2023/09/28 04:39:18;;;;;;;9.70;3.88;;;18.60;99.90;;;;;;5053554;28;20461;-69
2023/09/28 04:41:44;;;;;;;9.38;4.00;;;18.60;99.90;;;;;;5053944;28;20475;-70
2023/09/28 04:44:10;;;;;;;6.30;3.92;;;18.50;99.90;;;;;;5054778;28;20395;-70
2023/09/28 04:46:36;;;;;;;7.30;3.95;;;18.50;99.90;;;;;;5053107;28;20021;-70
2023/09/28 04:49:02;;;;;;;6.63;4.38;;;18.50;99.90;;;;;;5053904;28;20049;-70
2023/09/28 04:51:29;;;;;;;5.85;3.90;;;18.50;99.90;;;;;;5054025;28;20025;-70
2023/09/28 04:53:55;;;;;;;7.47;4.03;;;18.50;99.90;;;;;;5054258;28;20050;-70
2023/09/28 04:56:21;;;;;;;10.43;4.15;;;18.50;99.90;;;;;;5052931;28;20116;-69
2023/09/28 04:58:46;;;;;;;8.15;4.43;;;18.40;99.90;;;;;;5054418;28;20163;-70
2023/09/28 05:01:12;;;;;;;6.00;3.90;;;18.50;99.90;;;;;;5054447;28;20498;-70
2023/09/28 05:03:38;;;;;;;8.15;4.63;;;18.40;99.90;;;;;;5053833;28;20025;-70
2023/09/28 05:06:05;;;;;;;6.65;4.10;;;18.40;99.90;;;;;;5054221;28;20032;-70
2023/09/28 05:08:31;;;;;;;7.38;4.88;;;18.40;99.90;;;;;;5053447;28;20079;-70
2023/09/28 05:10:58;;;;;;;7.47;4.88;;;18.40;99.90;;;;;;5054105;28;20108;-70
2023/09/28 05:13:28;;;;;;;7.75;4.80;;;18.40;99.90;;;;;;5052030;28;20514;-70
2023/09/28 05:15:54;;;;;;;7.43;4.20;;;18.40;99.90;;;;;;5054209;28;20078;-69
2023/09/28 05:18:19;;;;;;;9.43;4.65;;;18.30;99.90;;;;;;5053198;28;20021;-70
2023/09/28 05:20:45;;;;;;;8.18;4.43;;;18.30;99.90;;;;;;5053882;28;20104;-70
2023/09/28 05:23:11;;;;;;;8.27;4.50;;;18.30;99.90;;;;;;5053248;28;20047;-70
2023/09/28 05:25:37;;;;;;;7.78;4.97;;;18.30;99.90;;;;;;5053812;28;20078;-70
2023/09/28 05:28:04;;;;;;;6.57;4.05;;;18.20;99.90;;;;;;5051839;28;20021;-70
2023/09/28 05:30:29;;;;;;;7.05;4.65;;;18.20;99.90;;;;;;5051819;28;20025;-70
2023/09/28 05:32:55;;;;;;;11.60;4.90;;;18.20;99.90;;;;;;5051773;28;20086;-70
2023/09/28 05:35:21;;;;;;;9.13;4.30;;;18.20;99.90;;;;;;5052412;28;20487;-70
2023/09/28 05:37:48;;;;;;;7.13;4.07;;;18.20;99.90;;;;;;5051736;28;20024;-69
2023/09/28 05:40:13;;;;;;;8.13;4.75;;;18.10;99.90;;;;;;5052532;28;20043;-70
2023/09/28 05:42:40;;;;;;;7.93;4.20;;;18.10;99.90;;;;;;5052844;28;20472;-70
2023/09/28 05:45:07;;;;;;;6.38;4.28;;;18.10;99.90;;;;;;5053425;28;20029;-70
2023/09/28 05:47:34;;;;;;;11.38;4.60;;;18.10;99.90;;;;;;5052695;28;20039;-69
2023/09/28 05:50:00;;;;;;;8.50;4.95;;;18.00;99.90;;;;;;5053186;28;20051;-70
2023/09/28 05:52:26;;;;;;;9.32;4.68;;;18.00;99.90;;;;;;5051262;28;20017;-70
2023/09/28 05:54:53;;;;;;;9.57;4.85;;;17.90;99.90;;;;;;5053484;28;20024;-70
2023/09/28 05:57:22;;;;;;;8.07;4.20;;;17.90;99.90;;;;;;5052731;28;20044;-69
2023/09/28 05:59:48;;;;;;;8.07;4.50;;;17.90;99.90;;;;;;5053047;28;20021;-70
2023/09/28 06:02:15;;;;;;;10.02;5.18;;;17.90;99.90;;;;;;5052623;28;20021;-69
2023/09/28 06:04:41;;;;;;;11.93;4.88;;;17.90;99.90;;;;;;5053067;28;20040;-70
2023/09/28 06:07:07;;;;;;;9.60;4.40;;;17.90;99.90;;;;;;5052321;28;20510;-70
2023/09/28 06:09:33;;;;;;;8.10;4.80;;;17.90;99.90;;;;;;5053192;28;20025;-70
2023/09/28 06:12:00;;;;;;;7.93;4.20;;;17.90;99.90;;;;;;5052237;28;20511;-70
2023/09/28 06:14:25;;;;;;;11.10;4.18;;;17.90;99.90;;;;;;5052839;28;20062;-69
2023/09/28 06:16:51;;;;;;;7.97;4.47;;;17.90;99.90;;;;;;5050917;28;20021;-69
2023/09/28 06:19:17;;;;;;;10.02;4.20;;;17.80;99.90;;;;;;5052605;28;20467;-69
2023/09/28 06:21:42;;;;;;;9.90;4.60;;;17.90;99.90;;;;;;5052318;28;20025;-69
2023/09/28 06:24:08;;;;;;;10.05;4.53;;;17.80;99.90;;;;;;5052502;28;20083;-69
2023/09/28 06:26:33;;;;;;;9.90;3.95;;;17.80;99.90;;;;;;5052492;28;20064;-69
2023/09/28 06:29:00;;;;;;;10.63;3.78;;;17.70;99.90;;;;;;5052096;28;20052;-70
2023/09/28 06:31:26;;;;;;;15.43;4.60;;;17.70;99.90;;;;;;5052598;28;20033;-70
2023/09/28 06:33:51;;;;;;;9.88;4.20;;;17.70;99.90;;;;;;5051967;28;20024;-69
2023/09/28 06:36:18;;;;;;;9.88;4.13;;;17.80;99.90;;;;;;5052532;28;20105;-70
2023/09/28 06:38:44;;;;;;;8.52;3.60;;;17.80;99.90;;;;;;5051781;28;20478;-71
2023/09/28 06:41:10;;;;;;;13.93;5.07;;;17.80;99.90;;;;;;5052472;28;20391;-70
2023/09/28 06:43:36;;;;;;;10.10;4.82;;;17.80;99.90;;;;;;5051811;28;20017;-70
2023/09/28 06:46:03;;;;;;;12.23;4.80;;;17.80;99.90;;;;;;5052426;28;20032;-69
2023/09/28 06:48:28;;;;;;;9.73;4.57;;;17.80;99.90;;;;;;5051387;28;20025;-68
2023/09/28 06:50:57;;;;;;;11.15;4.88;;;17.80;99.90;;;;;;5052218;28;20475;-69
2023/09/28 06:53:24;;;;;;;7.75;3.78;;;17.80;99.90;;;;;;5051458;28;20039;-68
2023/09/28 06:55:50;;;;;;;10.05;4.90;;;17.80;99.90;;;;;;5052132;28;20028;-68
2023/09/28 06:58:17;;;;;;;9.57;4.38;;;17.90;99.90;;;;;;5051487;28;20021;-68
2023/09/28 07:00:44;;;;;;;12.95;4.13;;;17.90;99.90;;;;;;5052044;28;20066;-68
2023/09/28 07:03:09;;;;;;;10.65;4.00;;;17.90;99.90;;;;;;5051379;28;20036;-68
2023/09/28 07:05:36;;;;;;;14.38;4.85;;;17.90;99.90;;;;;;5051985;28;20029;-68
2023/09/28 07:08:05;;;;;;;12.75;4.40;;;18.00;99.90;;;;;;5051288;28;20025;-69
2023/09/28 07:10:35;;;;;;;13.65;4.60;;;18.00;99.90;;;;;;5050853;28;20025;-69
2023/09/28 07:13:05;;;;;;;16.23;4.75;;;18.00;99.90;;;;;;5051245;28;20270;-68
2023/09/28 07:15:34;;;;;;;14.23;4.00;;;18.00;99.90;;;;;;5051887;28;20486;-69
2023/09/28 07:18:00;;;;;;;18.67;4.30;;;18.10;99.90;;;;;;5051130;28;20090;-68
2023/09/28 07:20:27;;;;;;;15.02;4.50;;;18.10;99.90;;;;;;5050641;28;20099;-69
2023/09/28 07:22:53;;;;;;;16.27;3.88;;;18.20;99.90;;;;;;5051215;28;20036;-69
2023/09/28 07:25:19;;;;;;;14.48;4.18;;;18.20;99.90;;;;;;5050768;28;20109;-69
2023/09/28 07:27:47;;;;;;;16.95;4.30;;;18.20;99.90;;;;;;5051243;28;20032;-69
2023/09/28 07:30:14;;;;;;;14.85;4.10;;;18.20;99.90;;;;;;5051745;28;20028;-69
2023/09/28 07:32:40;;;;;;;17.25;4.05;;;18.20;99.90;;;;;;5049688;28;20021;-69
2023/09/28 07:35:09;;;;;;;14.10;3.25;;;18.20;99.90;;;;;;5051656;28;20023;-69
2023/09/28 07:37:35;;;;;;;15.65;4.00;;;18.30;99.90;;;;;;5051118;28;20021;-68
2023/09/28 07:40:01;;;;;;;17.10;4.05;;;18.30;99.90;;;;;;5051704;28;20550;-69
2023/09/28 07:42:27;;;;;;;15.82;3.80;;;18.30;99.90;;;;;;5051008;28;20570;-68
2023/09/28 07:44:53;;;;;;;11.93;3.55;;;18.40;99.90;;;;;;5051749;28;20120;-68
2023/09/28 07:47:19;;;;;;;17.30;3.65;;;18.40;99.90;;;;;;5051157;28;20021;-68
2023/09/28 07:49:46;;;;;;;19.38;4.10;;;18.40;99.90;;;;;;5049979;28;20588;-68
2023/09/28 07:52:12;;;;;;;16.00;4.15;;;18.50;99.90;;;;;;5052214;28;20395;-68
2023/09/28 07:54:38;;;;;;;13.90;3.60;;;18.50;99.90;;;;;;5055533;28;20016;-69
2023/09/28 07:57:10;;;;;;;18.60;3.47;;;18.50;99.90;;;;;;5055149;28;20356;-68
2023/09/28 07:59:36;;;;;;;16.95;3.97;;;18.60;99.90;;;;;;5055385;28;20021;-69
2023/09/28 08:02:04;;;;;;;17.52;4.45;;;18.60;99.90;;;;;;5055229;28;20386;-69
2023/09/28 08:04:30;;;;;;;15.88;3.53;;;18.70;99.90;;;;;;5055257;28;20024;-69
2023/09/28 08:06:57;;;;;;;20.85;4.80;;;18.70;99.90;;;;;;5054039;28;20025;-69
2023/09/28 08:09:23;;;;;;;14.63;3.67;;;18.80;99.90;;;;;;5053749;28;20032;-69
2023/09/28 08:11:49;;;;;;;21.85;4.20;;;18.80;99.90;;;;;;5055268;28;20024;-68
2023/09/28 08:14:20;;;;;;;20.60;4.35;;;18.80;99.90;;;;;;5053310;28;20025;-69
2023/09/28 08:16:46;;;;;;;;;;;18.80;99.90;;;;;;5055600;28;20028;-69
2023/09/28 08:19:12;;;;;;;16.15;3.55;;;18.80;99.90;;;;;;5054898;28;20279;-69
2023/09/28 08:21:38;;;;;;;17.83;3.40;;;18.80;99.90;;;;;;5055368;28;20112;-68
2023/09/28 08:24:05;;;;;;;15.88;3.83;;;18.90;99.90;;;;;;5053166;28;20395;-69
2023/09/28 08:26:31;;;;;;;17.63;4.13;;;18.90;99.90;;;;;;5055055;28;20028;-69
2023/09/28 08:29:00;;;;;;;26.08;4.60;;;19.00;99.90;;;;;;5054477;28;20091;-69
2023/09/28 08:31:27;;;;;;;17.70;4.63;;;19.10;99.90;;;;;;5053612;28;20020;-69
2023/09/28 08:33:53;;;;;;;20.30;4.38;;;19.10;99.90;;;;;;5054343;28;20033;-69
2023/09/28 08:36:21;;;;;;;17.45;4.13;;;19.20;99.90;;;;;;5054909;28;20017;-69
2023/09/28 08:38:47;;;;;;;21.85;5.10;;;19.20;99.90;;;;;;5054154;28;20034;-69
2023/09/28 08:41:16;;;;;;;18.50;4.65;;;19.30;99.90;;;;;;5054665;28;20082;-69
2023/09/28 08:43:45;;;;;;;14.45;3.50;;;19.30;99.90;;;;;;5054051;28;20029;-69
2023/09/28 08:46:13;;;;;;;22.17;3.90;;;19.40;99.90;;;;;;5053370;28;20029;-69
2023/09/28 08:48:43;;;;;;;24.63;4.80;;;19.50;99.90;;;;;;5053870;28;20064;-69
2023/09/28 08:51:11;;;;;;;21.33;5.47;;;19.50;99.90;;;;;;5054732;28;20096;-69
2023/09/28 08:53:38;;;;;;;34.03;5.15;;;19.60;99.90;;;;;;5053883;28;20025;-69
2023/09/28 08:56:05;;;;;;;16.98;4.22;;;19.70;99.90;;;;;;5054510;28;20033;-69
2023/09/28 08:58:34;;;;;;;19.17;3.58;;;19.80;99.90;;;;;;5053736;28;20031;-69
2023/09/28 09:01:02;;;;;;;18.90;3.78;;;19.80;99.90;;;;;;5054309;28;20083;-69
2023/09/28 09:03:28;;;;;;;20.83;4.93;;;19.80;99.90;;;;;;5052736;28;20475;-69
2023/09/28 09:05:55;;;;;;;27.38;4.65;;;19.90;99.90;;;;;;5052574;28;20113;-69
2023/09/28 09:08:22;;;;;;;18.45;4.38;;;19.80;99.90;;;;;;5052264;28;20032;-69
2023/09/28 09:10:52;;;;;;;15.95;3.50;;;19.80;99.90;;;;;;5054091;28;20096;-69
2023/09/28 09:13:21;;;;;;;16.20;3.97;;;19.90;99.90;;;;;;5053405;28;20483;-69
2023/09/28 09:15:49;;;;;;;20.67;3.78;;;19.90;99.90;;;;;;5054070;28;20025;-69
2023/09/28 09:18:24;;;;;;;19.02;5.45;;;19.90;99.90;;;;;;5053450;28;20372;-69
2023/09/28 09:20:50;;;;;;;20.60;4.03;;;20.00;99.90;;;;;;5052937;28;20092;-69
2023/09/28 09:23:17;;;;;;;20.10;4.35;;;20.00;99.90;;;;;;5053321;28;20033;-69
2023/09/28 09:25:44;;;;;;;27.00;4.32;;;19.90;99.90;;;;;;5053903;28;20056;-69
2023/09/28 09:28:12;;;;;;;19.73;4.32;;;19.90;99.90;;;;;;5053282;28;20491;-69
2023/09/28 09:30:38;;;;;;;17.38;4.22;;;19.80;99.90;;;;;;5053822;28;20025;-69
2023/09/28 09:33:09;;;;;;;15.63;4.18;;;19.80;99.90;;;;;;5053254;28;20025;-69
2023/09/28 09:35:38;;;;;;;19.75;4.05;;;19.80;99.90;;;;;;5052452;28;20017;-69
2023/09/28 09:38:03;;;;;;;20.50;4.10;;;19.80;99.90;;;;;;5053055;28;20036;-69
2023/09/28 09:40:30;;;;;;;18.23;4.50;;;19.90;99.90;;;;;;5053510;28;20028;-69
2023/09/28 09:43:06;;;;;;;22.88;4.25;;;20.00;99.90;;;;;;5053182;28;20096;-69
2023/09/28 09:45:36;;;;;;;21.05;4.63;;;20.10;99.90;;;;;;5053546;28;20020;-69
2023/09/28 09:48:02;;;;;;;15.77;3.25;;;20.10;99.90;;;;;;5052742;28;20036;-69
2023/09/28 09:50:31;;;;;;;21.08;4.05;;;20.20;99.90;;;;;;5052989;28;20049;-69
2023/09/28 09:53:00;;;;;;;19.13;4.13;;;20.10;99.90;;;;;;5051428;28;20403;-69
2023/09/28 09:55:26;;;;;;;20.58;4.95;;;20.10;99.90;;;;;;5053411;28;20013;-69
2023/09/28 09:57:59;;;;;;;20.67;4.22;;;20.10;99.90;;;;;;5051430;28;20021;-69
2023/09/28 10:00:26;;;;;;;23.13;4.65;;;20.10;99.90;;;;;;5053258;28;20203;-71
2023/09/28 10:02:55;;;;;;;18.15;4.22;;;20.20;99.90;;;;;;5052565;28;20035;-71
2023/09/28 10:05:24;;;;;;;14.35;3.40;;;20.30;99.90;;;;;;5053102;28;20029;-69
2023/09/28 10:07:50;;;;;;;16.77;3.85;;;20.40;99.90;;;;;;5052524;28;20028;-69
2023/09/28 10:10:18;;;;;;;16.88;3.95;;;20.40;99.90;;;;;;5053073;28;20479;-69
2023/09/28 10:12:47;;;;;;;21.00;3.97;;;20.40;99.90;;;;;;5052461;28;20112;-69
2023/09/28 10:15:14;;;;;;;16.33;4.07;;;20.50;99.90;;;;;;5052449;28;20574;-69
2023/09/28 10:17:40;;;;;;;17.73;4.20;;;20.60;99.90;;;;;;5052535;28;20071;-69
2023/09/28 10:20:07;;;;;;;11.73;3.40;;;20.70;99.90;;;;;;5052701;28;20490;-69
2023/09/28 10:22:33;;;;;;;19.30;4.18;;;20.80;99.90;;;;;;5052513;28;20087;-69
2023/09/28 10:24:58;;;;;;;15.52;4.50;;;20.80;99.90;;;;;;5052967;28;20451;-69
2023/09/28 10:27:24;;;;;;;15.07;4.18;;;20.90;99.90;;;;;;5052496;28;20383;-70
2023/09/28 10:29:50;;;;;;;16.23;3.45;;;21.00;99.90;;;;;;5050975;28;20078;-69
2023/09/28 10:32:29;;;;;;;20.55;5.00;;;21.10;99.90;;;;;;5052613;28;20017;-69
2023/09/28 10:35:19;;;;;;;19.83;4.50;;;21.10;99.90;;;;;;5052272;28;20542;-69
2023/09/28 10:38:04;;;;;;;;;;;21.10;99.90;;;;;;5052539;28;20079;-70
2023/09/28 10:40:32;;;;;;;18.23;4.10;;;21.10;99.90;;;;;;5052592;28;19905;-69
2023/09/28 10:43:13;;;;;;;21.25;4.97;;;21.00;99.90;;;;;;5051691;28;20131;-70
2023/09/28 10:45:39;;;;;;;14.02;3.85;;;21.00;99.90;;;;;;5052573;28;20047;-70
2023/09/28 10:48:06;;;;;;;20.42;4.07;;;21.00;99.90;;;;;;5051593;28;20023;-69
2023/09/28 10:50:37;;;;;;;17.52;4.40;;;21.00;99.90;;;;;;5052222;28;20048;-71
2023/09/28 10:53:03;;;;;;;23.10;4.38;;;21.20;99.90;;;;;;5051685;28;20053;-70
2023/09/28 10:55:31;;;;;;;21.67;4.32;;;21.30;99.90;;;;;;5052156;28;20053;-69
2023/09/28 10:58:04;;;;;;;19.52;4.80;;;21.40;99.90;;;;;;5051767;28;20041;-69
2023/09/28 11:00:32;;;;;;;17.30;4.18;;;21.50;99.90;;;;;;5050893;28;20112;-69
2023/09/28 11:03:01;;;;;;;19.80;4.15;;;21.50;99.90;;;;;;5051776;28;20384;-69
2023/09/28 11:05:27;;;;;;;22.15;4.60;;;21.60;99.90;;;;;;5052230;28;20328;-69
2023/09/28 11:07:52;;;;;;;18.20;4.97;;;21.60;99.90;;;;;;5051620;28;20695;-71
2023/09/28 11:10:23;;;;;;;17.90;4.07;;;21.60;99.90;;;;;;5051810;28;20100;-69
2023/09/28 11:12:49;;;;;;;24.02;4.70;;;21.70;99.90;;;;;;5051412;28;20565;-69
2023/09/28 11:15:14;;;;;;;19.50;3.63;;;21.70;99.90;;;;;;5051670;28;20045;-69
2023/09/28 11:17:41;;;;;;;16.00;3.85;;;21.60;99.90;;;;;;5051687;28;20040;-69
2023/09/28 11:20:11;;;;;;;22.17;4.28;;;21.60;99.90;;;;;;5051801;28;20022;-70
2023/09/28 11:22:37;;;;;;;17.20;4.33;;;21.60;99.90;;;;;;5051660;28;20380;-69
2023/09/28 11:25:03;;;;;;;17.70;3.67;;;21.50;99.90;;;;;;5051496;28;20346;-70
2023/09/28 11:27:29;;;;;;;19.67;3.88;;;21.50;99.90;;;;;;5050954;28;20019;-70
2023/09/28 11:29:59;;;;;;;18.17;3.88;;;21.60;99.90;;;;;;5051247;28;20025;-69
2023/09/28 11:32:25;;;;;;;20.52;4.60;;;21.60;99.90;;;;;;5050596;28;20491;-70
2023/09/28 11:34:53;;;;;;;25.42;5.32;;;21.60;99.90;;;;;;5051170;28;20143;-70
2023/09/28 11:37:23;;;;;;;20.77;4.13;;;21.60;99.90;;;;;;5051720;28;20040;-70
2023/09/28 11:39:49;;;;;;;17.80;4.18;;;21.50;99.90;;;;;;5051255;28;20021;-70
2023/09/28 11:42:14;;;;;;;15.32;4.03;;;21.50;99.90;;;;;;5051841;28;20021;-69
2023/09/28 11:44:42;;;;;;;15.82;4.32;;;21.40;99.90;;;;;;5049825;28;20491;-69
2023/09/28 11:47:08;;;;;;;15.90;3.58;;;21.40;99.90;;;;;;5051576;28;20051;-69
2023/09/28 11:49:37;;;;;;;15.05;3.78;;;21.40;99.90;;;;;;5050744;28;20135;-69
2023/09/28 11:52:04;;;;;;;14.85;3.53;;;21.40;99.90;;;;;;5051522;28;20056;-70
2023/09/28 11:54:30;;;;;;;14.60;3.90;;;21.50;99.90;;;;;;5049763;28;20079;-69
2023/09/28 11:56:57;;;;;;;15.52;3.83;;;21.50;99.90;;;;;;5051684;28;20025;-70
2023/09/28 11:59:23;;;;;;;14.63;3.70;;;21.50;99.90;;;;;;5050914;28;20025;-70
2023/09/28 12:01:52;;;;;;;20.38;4.60;;;21.60;99.90;;;;;;5051640;28;20013;-70
2023/09/28 12:04:18;;;;;;;14.88;3.58;;;21.60;99.90;;;;;;5050974;28;20021;-70
2023/09/28 12:06:45;;;;;;;19.63;3.78;;;21.60;99.90;;;;;;5051516;28;20044;-70
2023/09/28 12:09:13;;;;;;;12.98;3.40;;;21.60;99.90;;;;;;5050972;28;20051;-69
2023/09/28 12:11:42;;;;;;;15.07;4.13;;;21.60;99.90;;;;;;5049963;28;20021;-69
2023/09/28 12:14:08;;;;;;;14.15;3.97;;;21.60;99.90;;;;;;5050845;28;20021;-70
2023/09/28 12:16:33;;;;;;;13.90;3.40;;;21.60;99.90;;;;;;5051395;28;20173;-69
2023/09/28 12:18:59;;;;;;;15.20;3.47;;;21.60;99.90;;;;;;5050645;28;20391;-70
2023/09/28 12:21:25;;;;;;;15.23;3.60;;;21.70;99.90;;;;;;5051274;28;20394;-69
2023/09/28 12:23:50;;;;;;;16.30;3.55;;;21.80;99.90;;;;;;5050844;28;20160;-69
2023/09/28 12:26:17;;;;;;;15.65;3.88;;;21.80;99.90;;;;;;5051299;28;20033;-70
2023/09/28 12:28:43;;;;;;;19.25;4.05;;;21.80;99.90;;;;;;5050700;28;20028;-69
2023/09/28 12:31:09;;;;;;;14.65;3.88;;;21.80;99.90;;;;;;5051336;28;20549;-69
2023/09/28 12:33:37;;;;;;;17.67;3.67;;;21.80;99.90;;;;;;5050590;28;20221;-69
2023/09/28 12:36:04;;;;;;;13.70;3.33;;;21.80;99.90;;;;;;5050183;28;20029;-70
2023/09/28 12:38:30;;;;;;;18.70;3.95;;;21.80;99.90;;;;;;5051690;28;20041;-69
2023/09/28 12:40:57;;;;;;;15.60;3.53;;;21.90;99.90;;;;;;5054699;28;20059;-70
2023/09/28 12:43:22;;;;;;;19.38;4.13;;;22.00;99.90;;;;;;5054071;28;20026;-70